Time;durP1;ratioP1;P1;durP2;ratioP2;P2;SDS_P1;SDS_P2;PMS_P1;PMS_P2;Temp;Humidity;BMP_temperature;BMP_pressure;BME280_temperature;BME280_humidity;BME280_pressure;Samples;Min_cycle;Max_cycle;Signal;HPM_P1;HPM_P2
2023/01/22 00:00:03;;;;;;;13.95;6.75;;;;;;;0.95;80.57;100767.63;6131327;23;20032;-92
2023/01/22 00:02:38;;;;;;;16.88;6.65;;;;;;;0.86;81.33;100763.53;6157638;23;20020;-92
2023/01/22 00:05:05;;;;;;;15.20;6.75;;;;;;;0.89;81.04;100765.22;6130441;23;20051;-93
2023/01/22 00:07:32;;;;;;;14.35;6.60;;;;;;;0.86;81.05;100760.09;6131529;23;20111;-94
2023/01/22 00:09:59;;;;;;;17.17;6.95;;;;;;;0.86;81.07;100758.31;6131336;23;20020;-92
2023/01/22 00:12:26;;;;;;;15.13;6.95;;;;;;;0.85;81.21;100761.00;6131011;23;20029;-91
2023/01/22 00:14:53;;;;;;;17.08;7.07;;;;;;;0.84;81.19;100757.53;6131972;23;20024;-93
2023/01/22 00:17:20;;;;;;;15.25;6.70;;;;;;;0.90;80.59;100750.38;6106936;23;20440;-92
2023/01/22 00:19:47;;;;;;;13.90;5.88;;;;;;;0.90;81.02;100753.84;6129455;23;20027;-92
2023/01/22 00:22:13;;;;;;;16.02;6.97;;;;;;;0.85;80.90;100748.78;6131904;23;20020;-93
2023/01/22 00:24:40;;;;;;;13.65;6.40;;;;;;;0.81;80.83;100749.78;6130970;23;20078;-92
2023/01/22 00:27:07;;;;;;;17.08;7.55;;;;;;;0.85;80.69;100742.69;6155536;23;20048;-92
2023/01/22 00:29:34;;;;;;;16.95;7.40;;;;;;;0.86;80.65;100747.00;6131999;23;20035;-92
2023/01/22 00:32:01;;;;;;;16.17;6.95;;;;;;;0.87;80.84;100746.13;6131484;23;20024;-92
2023/01/22 00:34:28;;;;;;;14.90;6.85;;;;;;;0.86;80.72;100744.38;6131332;23;20025;-92
2023/01/22 00:36:56;;;;;;;18.33;7.25;;;;;;;0.90;80.53;100745.16;6132421;23;20087;-94
2023/01/22 00:39:23;;;;;;;18.75;7.40;;;;;;;0.92;80.60;100738.13;6131167;23;20092;-93
2023/01/22 00:41:50;;;;;;;16.27;6.78;;;;;;;0.90;80.46;100732.09;6131177;23;20021;-93
2023/01/22 00:44:17;;;;;;;16.30;7.15;;;;;;;0.94;80.42;100736.28;6131583;23;20028;-92
2023/01/22 00:46:44;;;;;;;17.63;7.30;;;;;;;0.96;80.34;100732.72;6155432;23;20046;-92
2023/01/22 00:49:11;;;;;;;12.43;6.20;;;;;;;0.96;80.20;100737.09;6132428;23;20024;-94
2023/01/22 00:51:38;;;;;;;14.93;6.65;;;;;;;0.95;80.27;100732.78;6133773;23;20013;-91
2023/01/22 00:54:05;;;;;;;18.40;7.90;;;;;;;0.87;80.43;100727.81;6132922;23;20452;-93
2023/01/22 00:56:32;;;;;;;16.25;7.68;;;;;;;0.95;79.98;100733.63;6133701;23;20025;-93
2023/01/22 00:58:59;;;;;;;15.88;6.70;;;;;;;0.98;80.04;100732.66;6134762;23;20066;-92
2023/01/22 01:01:26;;;;;;;19.10;6.43;;;;;;;0.97;79.99;100736.22;6157782;23;20041;-93
2023/01/22 01:03:53;;;;;;;13.13;6.35;;;;;;;1.01;80.01;100730.78;6133350;23;20027;-93
2023/01/22 01:06:20;;;;;;;15.48;6.72;;;;;;;1.02;80.14;100734.28;6134163;23;20012;-92
2023/01/22 01:08:48;;;;;;;12.88;5.93;;;;;;;1.05;80.07;100727.19;6132448;23;20054;-93
2023/01/22 01:11:20;;;;;;;17.98;7.13;;;;;;;1.01;80.00;100727.31;6132841;23;20024;-94
2023/01/22 01:13:48;;;;;;;19.52;7.15;;;;;;;1.07;79.83;100727.97;6133109;23;20324;-94
2023/01/22 01:16:18;;;;;;;13.82;6.88;;;;;;;1.12;80.06;100732.19;6132636;23;20043;-92
2023/01/22 01:18:45;;;;;;;17.33;6.72;;;;;;;1.09;80.25;100727.91;6131700;23;20036;-92
2023/01/22 01:21:12;;;;;;;16.83;7.10;;;;;;;1.05;79.90;100732.41;6131540;23;20099;-92
2023/01/22 01:23:41;;;;;;;15.43;7.22;;;;;;;1.11;80.15;100728.72;6131219;23;20024;-94
2023/01/22 01:26:11;;;;;;;17.55;8.27;;;;;;;1.11;80.59;100725.25;6133448;23;20024;-91
2023/01/22 01:28:38;;;;;;;21.45;8.75;;;;;;;1.10;81.09;100727.03;6132764;23;20310;-94
2023/01/22 01:31:07;;;;;;;20.85;9.20;;;;;;;1.11;81.59;100736.56;6132767;23;20025;-93
2023/01/22 01:33:34;;;;;;;24.55;8.43;;;;;;;1.10;81.83;100734.03;6133973;23;20016;-91
2023/01/22 01:36:09;;;;;;;25.85;9.50;;;;;;;1.13;81.86;100732.13;6133183;23;20045;-94
2023/01/22 01:38:36;;;;;;;23.65;8.88;;;;;;;1.10;82.65;100731.41;6107444;23;20034;-91
2023/01/22 01:41:04;;;;;;;23.40;9.75;;;;;;;1.09;82.99;100735.75;6132893;23;20020;-92
2023/01/22 01:43:33;;;;;;;23.15;9.02;;;;;;;1.11;82.84;100722.63;6133565;23;20103;-92
2023/01/22 01:46:02;;;;;;;22.73;8.75;;;;;;;1.07;83.67;100727.97;6133066;23;20083;-94
2023/01/22 01:48:38;;;;;;;19.25;7.45;;;;;;;1.08;84.25;100726.22;6132456;23;20017;-93
2023/01/22 01:51:34;;;;;;;16.92;6.78;;;;;;;1.04;84.22;100730.72;6132190;23;20021;-92
2023/01/22 01:54:02;;;;;;;13.68;6.13;;;;;;;1.09;83.82;100727.91;6056175;23;20040;-93
2023/01/22 01:56:38;;;;;;;17.80;6.88;;;;;;;1.08;83.58;100734.91;6132740;23;20024;-93
2023/01/22 01:59:08;;;;;;;16.15;6.70;;;;;;;1.10;83.62;100723.56;6132151;23;20091;-93
2023/01/22 02:01:35;;;;;;;15.20;6.10;;;;;;;1.17;83.19;100717.19;6132595;23;20020;-94
2023/01/22 02:04:03;;;;;;;17.08;6.45;;;;;;;1.16;83.93;100720.72;6132305;23;20333;-91
2023/01/22 02:06:30;;;;;;;14.55;6.28;;;;;;;1.14;83.95;100715.53;6131933;23;20090;-92
2023/01/22 02:08:59;;;;;;;15.52;6.43;;;;;;;1.15;83.81;100716.41;6182155;23;20452;-92
2023/01/22 02:11:26;;;;;;;13.43;6.00;;;;;;;1.14;84.23;100731.22;6156746;23;20021;-93
2023/01/22 02:13:59;;;;;;;14.70;6.88;;;;;;;1.10;84.40;100729.63;6132011;23;20055;-93
2023/01/22 02:16:26;;;;;;;12.38;6.72;;;;;;;1.13;84.33;100729.53;6132836;23;20048;-94
2023/01/22 02:18:54;;;;;;;14.98;6.13;;;;;;;1.13;84.50;100719.06;6132052;23;20020;-92
2023/01/22 02:21:37;;;;;;;16.55;5.90;;;;;;;1.05;85.67;100721.94;6131954;23;20432;-92
2023/01/22 02:24:09;;;;;;;15.57;6.20;;;;;;;1.08;84.51;100724.44;6154876;23;20036;-92
2023/01/22 02:26:39;;;;;;;19.42;7.03;;;;;;;1.10;84.37;100721.78;6132903;23;20021;-92
2023/01/22 02:29:09;;;;;;;19.02;7.93;;;;;;;1.09;84.77;100714.84;6131998;23;20027;-93
2023/01/22 02:31:38;;;;;;;16.80;6.93;;;;;;;1.07;84.83;100716.69;6132368;23;20020;-92
2023/01/22 02:34:06;;;;;;;16.67;6.28;;;;;;;1.07;85.15;100721.91;6132333;23;20063;-93
2023/01/22 02:36:36;;;;;;;13.93;6.45;;;;;;;1.09;85.45;100722.69;6132483;23;20323;-94
2023/01/22 02:39:03;;;;;;;12.52;5.75;;;;;;;1.07;85.64;100727.13;6132393;23;20032;-94
2023/01/22 02:41:31;;;;;;;13.68;5.65;;;;;;;1.12;85.77;100727.81;6132757;23;20043;-93
2023/01/22 02:43:58;;;;;;;15.50;6.38;;;;;;;1.08;86.20;100729.69;6132450;23;20100;-94
2023/01/22 02:46:25;;;;;;;14.93;6.13;;;;;;;1.11;85.49;100728.72;6131883;23;20025;-94
2023/01/22 02:48:52;;;;;;;18.42;7.35;;;;;;;1.11;85.43;100727.88;6132601;23;20020;-92
2023/01/22 02:51:20;;;;;;;16.20;6.90;;;;;;;1.11;85.86;100726.09;6131873;23;20075;-93
2023/01/22 02:53:48;;;;;;;16.45;7.53;;;;;;;1.11;85.95;100725.25;6131885;23;20096;-93
2023/01/22 02:56:15;;;;;;;18.85;7.88;;;;;;;1.11;85.76;100726.09;6132022;23;20023;-93
2023/01/22 02:58:42;;;;;;;17.05;7.85;;;;;;;1.12;85.85;100721.72;6132419;23;20031;-94
2023/01/22 03:01:27;;;;;;;14.00;6.47;;;;;;;1.06;87.04;100722.78;6131655;23;20043;-93
2023/01/22 03:04:09;;;;;;;12.20;5.38;;;;;;;1.11;86.63;100723.47;6106409;23;20028;-94
2023/01/22 03:06:41;;;;;;;15.18;6.22;;;;;;;1.09;86.42;100722.69;6130975;23;20047;-94
2023/01/22 03:09:10;;;;;;;15.10;7.38;;;;;;;1.11;85.63;100723.47;6131612;23;20021;-92
2023/01/22 03:11:39;;;;;;;18.98;7.93;;;;;;;1.13;85.78;100724.28;6130027;23;20075;-91
2023/01/22 03:22:30;;;;;;;16.23;6.47;;;;;;;1.17;86.29;100714.56;6152621;23;20013;-94
2023/01/22 03:24:59;;;;;;;13.65;5.68;;;;;;;1.18;86.21;100716.28;6131594;23;20016;-92
2023/01/22 03:27:27;;;;;;;13.77;6.13;;;;;;;1.20;85.82;100723.16;6131813;23;20035;-91
2023/01/22 03:29:54;;;;;;;15.30;6.13;;;;;;;1.17;85.88;100715.44;6131354;23;20024;-92
2023/01/22 03:32:21;;;;;;;15.85;6.57;;;;;;;1.18;86.21;100719.75;6132153;23;20095;-94
2023/01/22 03:34:49;;;;;;;12.63;6.47;;;;;;;1.14;87.00;100712.91;6132997;23;20024;-93
2023/01/22 03:37:17;;;;;;;11.90;5.60;;;;;;;1.15;86.89;100711.16;6132112;23;20024;-94
2023/01/22 03:39:47;;;;;;;10.07;5.65;;;;;;;1.13;87.72;100715.59;6132713;23;20027;-93
2023/01/22 03:42:34;;;;;;;11.63;5.25;;;;;;;1.13;87.72;100716.44;6115648;23;20075;-92
2023/01/22 03:45:00;;;;;;;13.55;5.63;;;;;;;1.14;87.37;100705.06;6131930;23;20343;-93
2023/01/22 03:47:28;;;;;;;11.73;4.68;;;;;;;1.20;86.95;100709.25;6124039;23;20106;-92
2023/01/22 03:49:55;;;;;;;11.05;5.32;;;;;;;1.21;87.17;100713.56;6107553;23;20412;-94
2023/01/22 03:52:23;;;;;;;13.85;5.93;;;;;;;1.18;87.12;100714.53;6132253;23;20082;-92
2023/01/22 03:54:50;;;;;;;16.52;7.45;;;;;;;1.20;86.73;100712.72;6132596;23;20055;-94
2023/01/22 03:57:17;;;;;;;14.93;7.13;;;;;;;1.21;86.96;100722.25;6130857;23;20426;-92
2023/01/22 03:59:44;;;;;;;14.75;6.88;;;;;;;1.21;87.20;100718.78;6131810;23;20021;-91
2023/01/22 04:02:11;;;;;;;13.65;7.05;;;;;;;1.16;87.88;100718.94;6132340;23;20384;-92
2023/01/22 04:04:51;;;;;;;14.27;7.10;;;;;;;1.15;88.22;100719.03;6133331;23;20023;-92
2023/01/22 04:07:18;;;;;;;15.57;7.05;;;;;;;1.17;87.82;100725.03;6131749;23;20114;-95
2023/01/22 04:09:45;;;;;;;13.70;6.78;;;;;;;1.19;88.00;100715.38;6132350;23;20020;-94
2023/01/22 04:12:12;;;;;;;12.75;5.95;;;;;;;1.18;88.24;100724.97;6133658;23;20441;-94
2023/01/22 04:14:41;;;;;;;14.32;5.95;;;;;;;1.19;88.60;100723.22;6132541;23;20035;-93
2023/01/22 04:17:08;;;;;;;14.43;6.10;;;;;;;1.21;88.50;100734.47;6130677;23;20028;-92
2023/01/22 04:19:45;;;;;;;13.73;5.57;;;;;;;1.22;88.00;100731.81;6180222;23;20345;-93
2023/01/22 04:22:38;;;;;;;10.85;5.28;;;;;;;1.21;88.51;100737.09;6134994;23;20104;-92
2023/01/22 04:25:08;;;;;;;10.57;5.10;;;;;;;1.24;88.39;100729.13;6134069;23;20031;-93
2023/01/22 04:27:36;;;;;;;9.10;4.32;;;;;;;1.20;88.91;100731.03;6133754;23;20087;-93
2023/01/22 04:30:05;;;;;;;10.50;4.70;;;;;;;1.22;88.84;100736.19;6157304;23;20373;-93
2023/01/22 04:32:32;;;;;;;9.95;4.75;;;;;;;1.25;88.59;100738.72;6134139;23;20437;-92
2023/01/22 04:35:18;;;;;;;12.45;5.88;;;;;;;1.25;88.42;100730.88;6160865;23;20017;-94
2023/01/22 04:37:49;;;;;;;12.18;5.57;;;;;;;1.28;88.28;100735.97;6134466;23;20100;-93
2023/01/22 04:40:16;;;;;;;14.70;6.05;;;;;;;1.25;88.11;100734.31;6133250;23;20021;-94
2023/01/22 04:42:45;;;;;;;9.18;5.68;;;;;;;1.23;88.38;100733.53;6133950;23;20043;-92
2023/01/22 04:45:12;;;;;;;12.02;5.05;;;;;;;1.25;88.37;100734.31;6133093;23;20103;-91
2023/01/22 04:47:44;;;;;;;10.70;4.90;;;;;;;1.28;88.10;100743.84;6133616;23;20096;-91
2023/01/22 04:50:17;;;;;;;10.45;4.63;;;;;;;1.28;88.21;100741.22;6133358;23;20021;-91
2023/01/22 04:52:46;;;;;;;10.60;5.60;;;;;;;1.25;88.38;100739.56;6133944;23;20328;-95
2023/01/22 04:55:13;;;;;;;12.05;5.50;;;;;;;1.23;88.53;100732.69;6158240;23;20023;-92
2023/01/22 04:57:47;;;;;;;9.63;5.15;;;;;;;1.25;88.77;100739.56;6134173;23;20456;-92
2023/01/22 05:00:15;;;;;;;9.88;5.68;;;;;;;1.24;88.60;100743.06;6133060;23;20440;-91
2023/01/22 05:02:42;;;;;;;14.27;6.78;;;;;;;1.25;89.05;100746.56;6133238;23;20036;-92
2023/01/22 05:05:09;;;;;;;13.65;6.25;;;;;;;1.26;88.55;100749.09;6134083;23;20099;-91
2023/01/22 05:07:36;;;;;;;11.20;6.00;;;;;;;1.22;88.94;100749.25;6132809;23;20460;-93
2023/01/22 05:10:03;;;;;;;8.50;4.50;;;;;;;1.27;88.24;100750.84;6133528;23;20024;-93
2023/01/22 05:12:30;;;;;;;10.35;5.22;;;;;;;1.25;88.60;100750.03;6133321;23;20556;-93
2023/01/22 05:14:59;;;;;;;8.90;4.63;;;;;;;1.29;88.51;100750.75;6133516;23;20025;-92
2023/01/22 05:17:26;;;;;;;8.43;4.32;;;;;;;1.26;88.62;100746.50;6132745;23;20107;-93
2023/01/22 05:19:53;;;;;;;11.27;5.07;;;;;;;1.27;88.68;100757.81;6133480;23;20017;-94
2023/01/22 05:22:20;;;;;;;6.93;3.47;;;;;;;1.23;89.00;100762.31;6133141;23;20017;-91
2023/01/22 05:24:47;;;;;;;8.30;4.00;;;;;;;1.27;88.49;100761.31;6131791;23;20059;-91
2023/01/22 05:27:14;;;;;;;9.35;5.47;;;;;;;1.31;88.19;100769.88;6132666;23;24441;-91
2023/01/22 05:29:52;;;;;;;8.38;4.30;;;;;;;1.30;88.78;100770.81;6134192;23;20024;-91
2023/01/22 05:32:55;;;;;;;11.82;5.80;;;;;;;1.29;88.86;100777.78;6122528;23;20107;-93
2023/01/22 05:35:23;;;;;;;8.93;4.18;;;;;;;1.32;88.69;100771.56;6132514;23;20112;-92
2023/01/22 05:37:50;;;;;;;10.02;4.85;;;;;;;1.35;88.55;100775.84;6156018;23;20013;-92
2023/01/22 05:40:17;;;;;;;9.50;4.95;;;;;;;1.34;88.00;100777.63;6133001;23;20024;-91
2023/01/22 05:42:45;;;;;;;12.00;4.93;;;;;;;1.34;88.48;100772.38;6132755;23;20044;-92
2023/01/22 05:45:12;;;;;;;10.27;4.45;;;;;;;1.37;88.09;100772.28;6131998;23;20763;-90
2023/01/22 05:48:11;;;;;;;10.82;5.07;;;;;;;1.32;88.49;100776.81;6027374;23;20447;-93
2023/01/22 05:50:47;;;;;;;10.25;5.07;;;;;;;1.33;88.49;100773.31;6131507;23;20096;-91
2023/01/22 05:53:14;;;;;;;10.63;4.80;;;;;;;1.35;88.42;100783.69;6157209;23;20028;-91
2023/01/22 05:55:42;;;;;;;11.88;5.35;;;;;;;1.35;88.30;100778.47;6109024;23;20095;-93
2023/01/22 05:58:09;;;;;;;11.63;4.70;;;;;;;1.39;87.45;100782.69;6132685;23;20033;-93
2023/01/22 06:00:36;;;;;;;9.48;4.72;;;;;;;1.41;86.86;100781.72;6132913;23;20074;-92
2023/01/22 06:03:06;;;;;;;10.13;5.65;;;;;;;1.39;87.10;100782.69;6133125;23;20341;-92
2023/01/22 06:05:43;;;;;;;9.20;4.20;;;;;;;1.39;87.02;100786.16;6135022;23;20036;-92
2023/01/22 06:08:09;;;;;;;11.57;4.38;;;;;;;1.39;87.07;100794.00;6108314;23;20416;-91
2023/01/22 06:10:46;;;;;;;7.40;4.07;;;;;;;1.38;86.23;100781.00;6134362;23;20031;-92
2023/01/22 06:13:13;;;;;;;10.43;4.35;;;;;;;1.36;86.05;100782.81;6132283;23;20032;-93
2023/01/22 06:15:43;;;;;;;8.68;4.32;;;;;;;1.39;85.92;100788.78;6108491;23;20025;-93
2023/01/22 06:18:23;;;;;;;8.40;3.90;;;;;;;1.35;85.37;100786.31;6133656;23;20099;-92
2023/01/22 06:20:50;;;;;;;7.80;4.03;;;;;;;1.37;85.69;100785.34;6132794;23;20087;-92
2023/01/22 06:23:18;;;;;;;9.07;3.95;;;;;;;1.40;85.55;100795.75;6132684;23;20024;-92
2023/01/22 06:25:51;;;;;;;8.57;3.70;;;;;;;1.37;85.36;100795.81;6128377;23;20051;-91
2023/01/22 06:28:19;;;;;;;7.93;3.85;;;;;;;1.36;85.57;100790.66;6107964;23;20021;-92
2023/01/22 06:30:46;;;;;;;6.88;4.07;;;;;;;1.39;85.53;100796.63;6131717;23;20024;-92
2023/01/22 06:33:13;;;;;;;8.63;3.90;;;;;;;1.40;85.30;100798.34;6131949;23;20021;-94
2023/01/22 06:35:40;;;;;;;8.63;4.35;;;;;;;1.42;85.14;100800.91;6132113;23;20024;-92
2023/01/22 06:38:07;;;;;;;6.47;3.55;;;;;;;1.44;85.09;100799.94;6131091;23;20425;-93
2023/01/22 06:40:34;;;;;;;10.23;4.40;;;;;;;1.44;85.33;100799.09;6132137;23;20047;-93
2023/01/22 06:43:05;;;;;;;7.07;3.63;;;;;;;1.47;85.06;100801.59;6133303;23;20086;-91
2023/01/22 06:45:33;;;;;;;8.80;4.60;;;;;;;1.45;85.31;100796.44;6132669;23;20024;-92
2023/01/22 06:48:05;;;;;;;6.85;3.80;;;;;;;1.47;85.25;100806.81;6157551;23;20028;-93
2023/01/22 06:50:32;;;;;;;7.65;3.53;;;;;;;1.45;85.32;100809.50;6141978;23;20021;-93
2023/01/22 06:53:01;;;;;;;6.50;3.40;;;;;;;1.48;85.46;100813.78;6159585;23;20020;-91
2023/01/22 06:55:28;;;;;;;6.28;3.60;;;;;;;1.41;85.25;100810.53;6135040;23;20039;-93
2023/01/22 06:57:55;;;;;;;8.57;4.20;;;;;;;1.43;85.15;100813.94;6136874;23;20020;-93
2023/01/22 07:00:23;;;;;;;5.50;3.45;;;;;;;1.44;85.41;100815.63;6109661;23;20076;-94
2023/01/22 07:02:50;;;;;;;6.82;3.40;;;;;;;1.46;85.46;100815.59;6108266;23;20028;-94
2023/01/22 07:05:18;;;;;;;7.15;3.63;;;;;;;1.45;85.51;100821.72;6130743;23;20037;-92
2023/01/22 07:07:46;;;;;;;8.07;3.92;;;;;;;1.47;85.24;100820.75;6134392;23;20036;-93
2023/01/22 07:10:13;;;;;;;7.47;3.97;;;;;;;1.45;85.43;100830.44;6124790;23;20091;-94
2023/01/22 07:12:40;;;;;;;7.30;3.72;;;;;;;1.42;85.67;100835.78;6133224;23;20385;-93
2023/01/22 07:15:07;;;;;;;5.93;3.33;;;;;;;1.40;85.70;100835.00;6134509;23;20099;-93
2023/01/22 07:17:36;;;;;;;6.75;4.05;;;;;;;1.44;85.39;100835.72;6133037;23;20024;-92
2023/01/22 07:20:04;;;;;;;6.38;3.40;;;;;;;1.42;85.55;100830.53;6140592;23;20021;-94
2023/01/22 07:22:31;;;;;;;7.72;4.10;;;;;;;1.38;86.03;100833.34;6138443;23;20016;-94
2023/01/22 07:24:58;;;;;;;7.30;4.00;;;;;;;1.36;86.61;100837.75;6138427;23;20021;-92
2023/01/22 07:27:25;;;;;;;7.95;3.60;;;;;;;1.41;85.85;100843.69;6137828;23;20031;-93
2023/01/22 07:29:52;;;;;;;5.80;3.47;;;;;;;1.42;86.10;100848.00;6088346;23;20025;-92
2023/01/22 07:32:19;;;;;;;5.90;3.70;;;;;;;1.44;86.51;100851.44;6086075;23;20060;-93
2023/01/22 07:34:46;;;;;;;7.20;3.63;;;;;;;1.46;86.66;100855.72;6079312;23;20040;-93
2023/01/22 07:37:13;;;;;;;5.18;3.63;;;;;;;1.43;87.23;100858.44;6079712;23;20347;-93
2023/01/22 07:39:40;;;;;;;7.03;4.15;;;;;;;1.45;86.88;100847.91;6112143;23;20464;-93
2023/01/22 07:42:07;;;;;;;8.35;4.75;;;;;;;1.44;87.78;100860.13;6108294;23;20017;-95
2023/01/22 07:44:39;;;;;;;9.00;4.43;;;;;;;1.45;87.80;100860.97;6086328;23;20027;-93
2023/01/22 07:47:06;;;;;;;8.18;3.95;;;;;;;1.44;87.88;100865.38;6107244;23;20040;-95
2023/01/22 07:49:33;;;;;;;8.52;4.32;;;;;;;1.46;88.24;100870.56;6081784;23;20021;-92
2023/01/22 07:51:59;;;;;;;8.50;4.13;;;;;;;1.46;88.37;100867.94;6104291;23;20017;-93
2023/01/22 07:54:26;;;;;;;7.38;3.97;;;;;;;1.50;88.22;100875.66;6086515;23;20031;-93
2023/01/22 07:56:53;;;;;;;7.32;4.07;;;;;;;1.46;88.85;100876.66;6134227;23;20035;-94
2023/01/22 07:59:20;;;;;;;8.38;4.78;;;;;;;1.48;88.85;100881.84;6125619;23;20021;-94
2023/01/22 08:01:47;;;;;;;10.88;4.60;;;;;;;1.48;88.84;100885.31;6135625;23;20025;-93
2023/01/22 08:04:14;;;;;;;6.00;3.67;;;;;;;1.46;89.10;100881.88;6133575;23;20020;-92
2023/01/22 08:06:40;;;;;;;8.15;4.50;;;;;;;1.46;89.20;100888.88;6133458;23;20027;-92
2023/01/22 08:09:07;;;;;;;9.10;4.50;;;;;;;1.44;89.57;100891.53;6108992;23;20096;-91
2023/01/22 08:11:34;;;;;;;8.32;4.20;;;;;;;1.45;89.34;100892.38;6133720;23;20012;-94
2023/01/22 08:14:01;;;;;;;6.30;3.90;;;;;;;1.47;89.52;100890.56;6157967;23;20047;-91
2023/01/22 08:16:28;;;;;;;6.82;3.60;;;;;;;1.48;89.45;100902.78;6130409;23;20048;-87
2023/01/22 08:18:54;;;;;;;8.32;3.72;;;;;;;1.52;89.36;100909.59;6180012;23;20452;-87
2023/01/22 08:21:21;;;;;;;7.30;3.80;;;;;;;1.52;89.39;100902.59;6153823;23;20021;-88
2023/01/22 08:23:48;;;;;;;7.78;4.53;;;;;;;1.55;89.29;100903.41;6128514;23;20021;-88
2023/01/22 08:26:15;;;;;;;7.68;3.78;;;;;;;1.56;89.39;100908.59;6154832;23;20024;-88
2023/01/22 08:28:41;;;;;;;8.98;5.03;;;;;;;1.58;89.35;100911.16;6154256;23;20024;-89
2023/01/22 08:31:08;;;;;;;5.38;3.20;;;;;;;1.61;89.22;100911.06;6178619;23;20116;-89
2023/01/22 08:33:48;;;;;;;8.15;4.13;;;;;;;1.62;89.51;100913.63;6158632;23;20032;-88
2023/01/22 08:36:15;;;;;;;7.05;3.60;;;;;;;1.63;89.40;100920.59;6129657;23;20022;-88
2023/01/22 08:38:41;;;;;;;6.55;3.58;;;;;;;1.65;89.21;100918.75;6204669;23;20021;-89
2023/01/22 08:41:08;;;;;;;7.68;3.85;;;;;;;1.68;89.18;100930.88;6153210;23;20023;-88
2023/01/22 08:43:35;;;;;;;8.48;3.90;;;;;;;1.70;89.02;100924.66;6182282;23;20091;-87
2023/01/22 08:46:02;;;;;;;4.32;3.30;;;;;;;1.71;89.09;100930.78;6129259;23;20075;-87
2023/01/22 08:48:28;;;;;;;8.90;4.25;;;;;;;1.70;88.81;100929.91;6129448;23;20071;-87
2023/01/22 08:50:58;;;;;;;7.57;3.63;;;;;;;1.72;89.02;100932.50;6177626;23;20021;-88
2023/01/22 08:53:25;;;;;;;10.93;4.57;;;;;;;1.72;88.75;100925.47;6154032;23;20016;-87
2023/01/22 08:55:52;;;;;;;7.53;4.05;;;;;;;1.70;89.04;100927.28;6129479;23;20032;-86
2023/01/22 08:58:20;;;;;;;6.28;3.55;;;;;;;1.71;88.90;100934.25;6129459;23;20023;-89
2023/01/22 09:00:47;;;;;;;8.88;3.65;;;;;;;1.71;88.19;100929.03;6153330;23;20024;-89
2023/01/22 09:03:14;;;;;;;7.10;3.97;;;;;;;1.68;88.45;100923.00;6129387;23;20107;-88
2023/01/22 09:05:41;;;;;;;6.78;3.53;;;;;;;1.73;88.21;100924.59;6154941;23;20054;-90
2023/01/22 09:08:08;;;;;;;5.63;3.67;;;;;;;1.77;88.17;100930.56;6178834;23;20334;-88
2023/01/22 09:10:34;;;;;;;6.65;3.63;;;;;;;1.74;87.86;100928.91;6177451;23;20025;-88
2023/01/22 09:13:01;;;;;;;5.25;3.75;;;;;;;1.76;87.84;100939.34;6153947;23;20751;-88
2023/01/22 09:15:28;;;;;;;6.85;3.33;;;;;;;1.71;87.54;100933.41;6178776;23;20102;-88
2023/01/22 09:17:55;;;;;;;6.45;3.53;;;;;;;1.77;87.30;100933.19;6126967;23;20021;-87
2023/01/22 09:20:21;;;;;;;7.30;3.90;;;;;;;1.76;87.39;100938.50;6178805;23;20028;-88
2023/01/22 09:22:48;;;;;;;5.95;3.83;;;;;;;1.76;87.25;100943.72;6153958;23;20025;-87
2023/01/22 09:25:15;;;;;;;7.57;3.83;;;;;;;1.78;87.26;100941.88;6178309;23;20032;-88
2023/01/22 09:27:42;;;;;;;7.90;4.47;;;;;;;1.79;87.35;100946.25;6152801;23;20357;-89
2023/01/22 09:30:09;;;;;;;5.80;3.80;;;;;;;1.79;87.38;100951.47;6128905;23;20030;-88
2023/01/22 09:32:36;;;;;;;9.15;5.20;;;;;;;1.81;87.17;100950.53;6129518;23;20134;-87
2023/01/22 09:35:03;;;;;;;7.82;4.60;;;;;;;1.82;87.11;100954.84;6154038;23;20457;-89
2023/01/22 09:37:30;;;;;;;6.40;3.92;;;;;;;1.83;87.28;100959.19;6152456;23;20445;-88
2023/01/22 09:39:57;;;;;;;7.38;4.00;;;;;;;1.85;86.83;100953.88;6129009;23;20025;-86
2023/01/22 09:42:35;;;;;;;10.65;5.25;;;;;;;1.82;87.65;100959.22;6178203;23;20017;-89
2023/01/22 09:45:10;;;;;;;7.20;4.22;;;;;;;1.83;87.13;100955.69;6128186;23;20457;-89
2023/01/22 09:47:41;;;;;;;7.30;4.40;;;;;;;1.84;87.05;100954.78;6127667;23;20099;-88
2023/01/22 09:50:25;;;;;;;5.18;3.67;;;;;;;1.82;87.82;100961.84;6151700;23;20021;-84
2023/01/22 09:52:52;;;;;;;;;;;;;;;1.74;87.84;100956.88;6152584;23;20480;-89
2023/01/22 09:55:21;;;;;;;5.53;3.33;;;;;;;1.80;87.36;100967.13;6128367;23;19931;-87
2023/01/22 09:57:51;;;;;;;5.43;3.33;;;;;;;1.85;87.07;100967.81;6153609;23;20027;-88
2023/01/22 10:00:21;;;;;;;6.07;3.10;;;;;;;1.82;87.38;100964.47;6128021;23;20515;-89
2023/01/22 10:02:53;;;;;;;4.90;2.80;;;;;;;1.79;87.20;100975.91;6176603;23;20020;-89
2023/01/22 10:05:33;;;;;;;4.53;2.80;;;;;;;1.79;86.39;100967.19;6127855;23;20044;-86
2023/01/22 10:08:10;;;;;;;4.20;2.85;;;;;;;1.75;86.20;100971.66;6201791;23;20024;-89
2023/01/22 10:10:36;;;;;;;4.80;2.90;;;;;;;1.84;86.41;100973.13;6202298;23;20372;-90
2023/01/22 10:13:15;;;;;;;5.18;3.20;;;;;;;1.82;86.87;100974.94;6152870;23;20091;-89
2023/01/22 10:15:42;;;;;;;5.57;3.08;;;;;;;1.85;86.91;100970.44;6151592;23;20138;-83
2023/01/22 10:18:24;;;;;;;5.38;2.95;;;;;;;1.84;86.60;100970.50;6128215;23;20017;-90
2023/01/22 10:20:52;;;;;;;4.70;2.45;;;;;;;1.88;86.36;100974.72;6151817;23;20055;-89
2023/01/22 10:23:22;;;;;;;5.78;2.58;;;;;;;1.91;85.90;100978.09;6153269;23;20092;-91
2023/01/22 10:26:08;;;;;;;3.60;2.25;;;;;;;1.91;85.90;100972.88;6152294;23;20028;-90
2023/01/22 10:28:35;;;;;;;3.80;2.60;;;;;;;1.88;86.11;100970.34;6086458;23;20027;-89
2023/01/22 10:31:02;;;;;;;4.40;2.60;;;;;;;1.94;86.19;100970.13;6154170;23;20012;-90
2023/01/22 10:33:29;;;;;;;3.38;2.53;;;;;;;1.95;86.04;100976.22;6152583;23;20095;-89
2023/01/22 10:35:56;;;;;;;3.55;2.83;;;;;;;1.91;86.20;100975.47;6177428;23;20082;-90
2023/01/22 10:38:29;;;;;;;3.85;2.90;;;;;;;1.92;86.32;100976.34;6153436;23;20028;-88
2023/01/22 10:40:58;;;;;;;4.47;3.00;;;;;;;1.99;86.62;100983.06;6103734;23;20047;-88
2023/01/22 10:43:34;;;;;;;3.50;2.45;;;;;;;1.95;86.43;100981.47;6152655;23;20408;-87
2023/01/22 10:46:22;;;;;;;4.95;2.55;;;;;;;2.01;87.83;100981.28;6151011;23;20023;-88
2023/01/22 10:49:02;;;;;;;3.65;2.38;;;;;;;2.07;86.69;100980.19;6126078;23;20111;-87
2023/01/22 10:51:37;;;;;;;3.95;2.72;;;;;;;2.02;85.50;100989.97;6102882;23;20016;-88
2023/01/22 10:54:14;;;;;;;2.75;2.28;;;;;;;2.00;85.49;100984.78;6152511;23;20021;-89
2023/01/22 10:56:41;;;;;;;3.83;2.50;;;;;;;2.01;85.45;100989.13;6174382;23;20355;-88
2023/01/22 10:59:34;;;;;;;3.03;2.30;;;;;;;1.93;84.81;100991.13;6152882;23;20111;-88
2023/01/22 11:02:10;;;;;;;4.40;2.20;;;;;;;2.00;85.68;100990.00;6124607;23;20027;-88
2023/01/22 11:04:37;;;;;;;2.80;1.95;;;;;;;2.01;84.90;100989.13;6175698;23;20419;-89
2023/01/22 11:07:13;;;;;;;7.20;3.47;;;;;;;2.01;84.98;100986.50;6128641;23;20402;-89
2023/01/22 11:10:04;;;;;;;4.18;2.63;;;;;;;2.05;85.92;100990.72;6102968;23;20031;-88
2023/01/22 11:12:41;;;;;;;3.58;2.65;;;;;;;2.00;85.84;100989.16;6172976;23;20079;-87
2023/01/22 11:15:22;;;;;;;3.08;2.33;;;;;;;2.05;85.47;100988.09;6201079;23;20025;-88
2023/01/22 11:17:52;;;;;;;3.40;2.05;;;;;;;2.07;85.40;100985.44;6197888;23;20444;-84
2023/01/22 11:20:29;;;;;;;4.30;2.65;;;;;;;2.03;85.07;100989.91;6153213;23;20023;-88
2023/01/22 11:23:08;;;;;;;3.08;2.22;;;;;;;2.03;85.04;100986.44;6174948;23;20424;-89
2023/01/22 11:25:44;;;;;;;4.47;2.58;;;;;;;2.04;84.51;100986.38;6127391;23;20036;-89
2023/01/22 11:28:40;;;;;;;2.40;1.90;;;;;;;2.01;83.92;100989.13;6149499;23;20025;-87
2023/01/22 11:31:16;;;;;;;2.90;2.13;;;;;;;2.01;84.29;100980.38;6109638;23;20028;-89
2023/01/22 11:33:57;;;;;;;2.78;1.85;;;;;;;2.03;84.58;100984.66;6174950;23;20032;-89
2023/01/22 11:36:36;;;;;;;3.10;2.20;;;;;;;2.06;84.64;100966.25;6125910;23;20400;-90
2023/01/22 11:39:46;;;;;;;3.55;2.30;;;;;;;2.08;84.55;100974.03;6125678;23;20465;-88
2023/01/22 11:42:21;;;;;;;4.13;2.50;;;;;;;2.07;84.31;100961.84;6104217;23;20020;-88
2023/01/22 11:44:57;;;;;;;3.13;2.17;;;;;;;2.06;84.99;100968.88;6150724;23;20026;-88
2023/01/22 11:47:31;;;;;;;2.83;1.88;;;;;;;2.12;84.34;100973.88;6200613;23;20440;-90
2023/01/22 11:50:32;;;;;;;3.03;2.67;;;;;;;2.05;85.04;100968.91;6151284;23;20096;-88